createdAt,value
2019-02-23T00:01:50.220Z,7.45
2019-02-23T00:04:18.442Z,7.58
2019-02-23T00:06:46.668Z,8.23
2019-02-23T00:09:14.892Z,7.87
2019-02-23T00:11:43.129Z,7.95
2019-02-23T00:14:11.657Z,7.42
2019-02-23T00:16:39.875Z,7.58
2019-02-23T00:19:08.106Z,7.50
2019-02-23T00:21:36.324Z,7.80
2019-02-23T00:24:04.557Z,7.95
2019-02-23T00:26:32.868Z,8.38
2019-02-23T00:29:01.096Z,8.38
2019-02-23T00:31:29.633Z,7.95
2019-02-23T00:33:57.859Z,8.10
2019-02-23T00:36:26.077Z,7.87
2019-02-23T00:38:54.309Z,7.95
2019-02-23T00:41:22.789Z,8.60
2019-02-23T00:43:51.054Z,7.72
2019-02-23T00:46:19.328Z,8.18
2019-02-23T00:48:47.547Z,8.05
2019-02-23T00:51:15.776Z,7.22
2019-02-23T00:53:44.349Z,8.35
2019-02-23T00:56:12.580Z,8.23
2019-02-23T00:58:40.804Z,8.15
2019-02-23T01:01:09.032Z,8.03
2019-02-23T01:03:37.312Z,8.33
2019-02-23T01:06:05.885Z,7.62
2019-02-23T01:08:34.378Z,8.65
2019-02-23T01:11:02.604Z,7.67
2019-02-23T01:13:30.827Z,7.20
2019-02-23T01:15:59.063Z,8.20
2019-02-23T01:18:27.285Z,8.00
2019-02-23T01:20:55.523Z,7.75
2019-02-23T01:23:23.738Z,8.00
2019-02-23T01:25:51.963Z,8.03
2019-02-23T01:28:20.256Z,7.50
2019-02-23T01:30:48.484Z,8.30
2019-02-23T01:33:16.700Z,7.55
2019-02-23T01:35:45.357Z,7.87
2019-02-23T01:38:13.581Z,7.90
2019-02-23T01:40:41.813Z,7.30
2019-02-23T01:43:10.039Z,7.80
2019-02-23T01:45:42.345Z,7.30
2019-02-23T01:48:08.204Z,7.12
2019-02-23T01:50:36.492Z,7.25
2019-02-23T01:53:04.723Z,8.20
2019-02-23T01:55:33.204Z,7.80
2019-02-23T01:58:01.434Z,7.03
2019-02-23T02:00:29.985Z,8.00
2019-02-23T02:02:58.217Z,7.45
2019-02-23T02:05:26.769Z,7.75
2019-02-23T02:07:55.069Z,7.20
2019-02-23T02:10:23.460Z,7.15
2019-02-23T02:12:51.688Z,6.70
2019-02-23T02:15:20.233Z,6.35
2019-02-23T02:17:48.460Z,6.87
2019-02-23T02:20:16.684Z,7.33
2019-02-23T02:22:44.909Z,6.85
2019-02-23T02:25:13.388Z,7.10
2019-02-23T02:27:41.617Z,7.00
2019-02-23T02:30:10.877Z,6.97
2019-02-23T02:32:39.104Z,7.15
2019-02-23T02:35:09.064Z,7.03
2019-02-23T02:37:37.298Z,6.87
2019-02-23T02:40:07.166Z,7.67
2019-02-23T02:42:35.372Z,7.37
2019-02-23T02:45:04.208Z,7.72
2019-02-23T02:47:32.436Z,7.47
2019-02-23T02:50:00.659Z,8.15
2019-02-23T02:52:28.884Z,8.20
2019-02-23T02:54:57.101Z,7.80
2019-02-23T02:57:25.340Z,8.50
2019-02-23T02:59:53.565Z,8.38
2019-02-23T03:02:22.134Z,8.73
2019-02-23T03:04:50.348Z,8.50
2019-02-23T03:07:18.577Z,8.20
2019-02-23T03:09:46.796Z,8.90
2019-02-23T03:12:15.497Z,8.15
2019-02-23T03:14:43.713Z,9.30
2019-02-23T03:17:11.952Z,8.98
2019-02-23T03:19:40.177Z,10.08
2019-02-23T03:22:08.411Z,9.60
2019-02-23T03:24:36.641Z,9.50
2019-02-23T03:27:05.209Z,9.15
2019-02-23T03:29:33.821Z,9.23
2019-02-23T03:32:02.322Z,9.38
2019-02-23T03:34:30.549Z,9.13
2019-02-23T03:36:58.760Z,9.90
2019-02-23T03:39:27.033Z,10.45
2019-02-23T03:41:55.247Z,10.50
2019-02-23T03:44:23.479Z,10.85
2019-02-23T03:46:52.466Z,10.53
2019-02-23T03:49:20.960Z,10.58
2019-02-23T03:51:49.177Z,11.20
2019-02-23T03:54:17.747Z,10.90
2019-02-23T03:56:46.256Z,10.78
2019-02-23T03:59:14.532Z,10.60
2019-02-23T04:01:42.797Z,10.60
2019-02-23T04:04:11.404Z,11.55
2019-02-23T04:06:39.644Z,10.13
2019-02-23T04:09:07.880Z,10.75
2019-02-23T04:11:36.142Z,11.08
2019-02-23T04:14:04.373Z,11.65
2019-02-23T04:16:33.056Z,10.82
2019-02-23T04:19:01.290Z,11.28
2019-02-23T04:21:29.849Z,11.60
2019-02-23T04:23:58.078Z,11.48
2019-02-23T04:26:26.316Z,12.15
2019-02-23T04:28:54.816Z,11.38
2019-02-23T04:31:23.036Z,12.05
2019-02-23T04:33:51.268Z,11.63
2019-02-23T04:36:19.921Z,11.38
2019-02-23T04:38:48.185Z,12.50
2019-02-23T04:41:16.421Z,12.65
2019-02-23T04:43:44.658Z,12.75
2019-02-23T04:46:12.876Z,12.70
2019-02-23T04:48:41.428Z,12.18
2019-02-23T04:51:14.201Z,12.20
2019-02-23T04:53:39.604Z,11.55
2019-02-23T04:56:07.833Z,12.68
2019-02-23T04:58:36.055Z,12.60
2019-02-23T05:01:04.623Z,12.10
2019-02-23T05:03:32.853Z,12.47
2019-02-23T05:06:01.402Z,12.60
2019-02-23T05:08:29.682Z,12.18
2019-02-23T05:10:57.928Z,11.97
2019-02-23T05:13:26.160Z,12.80
2019-02-23T05:15:54.385Z,11.50
2019-02-23T05:18:22.624Z,11.73
2019-02-23T05:20:51.142Z,12.28
2019-02-23T05:23:19.629Z,11.73
2019-02-23T05:25:47.851Z,13.30
2019-02-23T05:28:16.135Z,12.75
2019-02-23T05:30:44.421Z,12.20
2019-02-23T05:33:12.988Z,12.40
2019-02-23T05:35:41.208Z,12.53
2019-02-23T05:38:09.440Z,12.53
2019-02-23T05:40:37.665Z,11.57
2019-02-23T05:43:05.891Z,12.78
2019-02-23T05:45:34.433Z,12.13
2019-02-23T05:48:02.676Z,12.33
2019-02-23T05:50:30.897Z,12.88
2019-02-23T05:52:59.132Z,12.58
2019-02-23T05:55:27.697Z,12.30
2019-02-23T05:57:55.933Z,12.33
2019-02-23T06:00:24.477Z,12.73
2019-02-23T06:02:52.721Z,13.08
2019-02-23T06:05:20.933Z,12.75
2019-02-23T06:07:49.160Z,12.45
2019-02-23T06:10:17.400Z,13.43
2019-02-23T06:12:45.617Z,12.37
2019-02-23T06:15:13.857Z,13.28
2019-02-23T06:17:42.080Z,13.25
2019-02-23T06:20:10.323Z,13.62
2019-02-23T06:22:38.872Z,12.80
2019-02-23T06:25:08.402Z,12.95
2019-02-23T06:27:36.993Z,13.68
2019-02-23T06:30:11.224Z,13.48
2019-02-23T06:32:39.444Z,13.55
2019-02-23T06:35:09.520Z,14.03
2019-02-23T06:37:37.740Z,13.30
2019-02-23T06:40:10.973Z,13.88
2019-02-23T06:42:39.196Z,13.30
2019-02-23T06:45:12.489Z,13.58
2019-02-23T06:47:40.707Z,13.48
2019-02-23T06:50:08.941Z,13.20
2019-02-23T06:52:37.504Z,13.13
2019-02-23T06:55:06.906Z,14.47
2019-02-23T06:57:35.176Z,18.57
2019-02-23T07:00:05.089Z,14.10
2019-02-23T07:02:33.425Z,12.30
2019-02-23T07:05:01.658Z,11.90
2019-02-23T07:07:30.210Z,11.28
2019-02-23T07:09:58.448Z,13.08
2019-02-23T07:12:26.676Z,12.70
2019-02-23T07:14:55.116Z,12.88
2019-02-23T07:17:23.343Z,12.40
2019-02-23T07:19:51.568Z,12.88
2019-02-23T07:22:20.052Z,13.25
2019-02-23T07:24:48.284Z,13.22
2019-02-23T07:27:16.837Z,13.60
2019-02-23T07:29:45.069Z,14.20
2019-02-23T07:32:13.287Z,14.33
2019-02-23T07:34:41.809Z,14.05
2019-02-23T07:37:10.039Z,13.45
2019-02-23T07:39:38.584Z,14.25
2019-02-23T07:42:06.965Z,14.15
2019-02-23T07:44:35.316Z,14.45
2019-02-23T07:47:03.532Z,13.48
2019-02-23T07:49:31.763Z,13.32
2019-02-23T07:51:59.984Z,13.78
2019-02-23T07:54:28.228Z,14.00
2019-02-23T07:56:56.444Z,13.00
2019-02-23T07:59:24.677Z,14.25
2019-02-23T08:01:52.900Z,13.20
2019-02-23T08:04:21.116Z,13.38
2019-02-23T08:06:49.385Z,12.90
2019-02-23T08:09:17.613Z,13.93
2019-02-23T08:11:45.855Z,12.78
2019-02-23T08:14:14.077Z,13.13
2019-02-23T08:16:42.320Z,12.50
2019-02-23T08:19:10.540Z,12.95
2019-02-23T08:21:38.779Z,12.88
2019-02-23T08:24:06.998Z,12.95
2019-02-23T08:26:35.592Z,12.47
2019-02-23T08:29:04.060Z,11.33
2019-02-23T08:31:32.296Z,12.05
2019-02-23T08:34:00.519Z,12.40
2019-02-23T08:36:29.036Z,12.47
2019-02-23T08:38:57.252Z,12.55
2019-02-23T08:41:25.817Z,11.55
2019-02-23T08:43:54.044Z,12.63
2019-02-23T08:46:22.286Z,12.90
2019-02-23T08:48:50.796Z,11.48
2019-02-23T08:51:19.029Z,12.50
2019-02-23T08:53:47.251Z,12.25
2019-02-23T08:56:15.484Z,12.58
2019-02-23T08:58:44.048Z,12.58
2019-02-23T09:01:12.282Z,12.98
2019-02-23T09:03:40.508Z,13.00
2019-02-23T09:06:08.764Z,12.60
2019-02-23T09:08:36.984Z,12.20
2019-02-23T09:11:06.185Z,12.05
2019-02-23T09:13:34.416Z,12.50
2019-02-23T09:16:02.989Z,13.72
2019-02-23T09:18:31.221Z,11.85
2019-02-23T09:20:59.463Z,12.25
2019-02-23T09:23:27.981Z,12.20
2019-02-23T09:25:57.847Z,11.57
2019-02-23T09:28:26.232Z,11.78
2019-02-23T09:30:54.475Z,11.28
2019-02-23T09:33:22.695Z,11.18
2019-02-23T09:35:50.946Z,11.12
2019-02-23T09:38:19.441Z,10.90
2019-02-23T09:40:47.709Z,10.70
2019-02-23T09:43:17.738Z,11.03
2019-02-23T09:45:45.896Z,10.65
2019-02-23T09:48:14.436Z,10.70
2019-02-23T09:50:43.037Z,10.72
2019-02-23T09:53:12.174Z,11.48
2019-02-23T09:55:40.455Z,11.38
2019-02-23T09:58:08.928Z,10.43
2019-02-23T10:00:37.165Z,10.40
2019-02-23T10:03:05.426Z,10.78
2019-02-23T10:05:33.788Z,10.38
2019-02-23T10:08:02.289Z,10.25
2019-02-23T10:10:30.508Z,9.80
2019-02-23T10:12:58.743Z,9.68
2019-02-23T10:15:26.972Z,9.55
2019-02-23T10:17:55.209Z,8.93
2019-02-23T10:20:23.428Z,8.03
2019-02-23T10:22:51.659Z,7.87
2019-02-23T10:25:20.215Z,8.50
2019-02-23T10:27:48.453Z,8.03
2019-02-23T10:30:17.633Z,8.35
2019-02-23T10:32:45.921Z,8.33
2019-02-23T10:35:14.312Z,8.53
2019-02-23T10:37:42.552Z,8.38
2019-02-23T10:40:11.909Z,8.60
2019-02-23T10:42:40.174Z,8.68
2019-02-23T10:45:10.944Z,8.18
2019-02-23T10:47:39.187Z,7.72
2019-02-23T10:50:09.641Z,8.38
2019-02-23T10:52:38.145Z,8.30
2019-02-23T10:55:09.280Z,7.33
2019-02-23T11:00:10.172Z,7.72
2019-02-23T11:02:38.404Z,7.78
2019-02-23T11:05:07.433Z,8.00
2019-02-23T11:07:35.968Z,7.08
2019-02-23T11:10:05.631Z,7.17
2019-02-23T11:12:33.864Z,6.78
2019-02-23T11:15:02.082Z,6.42
2019-02-23T11:17:30.320Z,6.53
2019-02-23T11:19:58.848Z,5.92
2019-02-23T11:22:27.166Z,5.75
2019-02-23T11:24:55.633Z,5.42
2019-02-23T11:27:23.871Z,6.22
2019-02-23T11:29:52.113Z,5.87
2019-02-23T11:32:20.620Z,5.80
2019-02-23T11:34:48.840Z,6.30
2019-02-23T11:37:17.096Z,6.08
2019-02-23T11:39:45.320Z,6.25
2019-02-23T11:42:13.861Z,6.15
2019-02-23T11:44:42.080Z,5.55
2019-02-23T11:47:10.347Z,6.03
2019-02-23T11:49:38.848Z,6.25
2019-02-23T11:52:07.070Z,5.72
2019-02-23T11:54:35.291Z,5.72
2019-02-23T11:57:03.552Z,5.50
2019-02-23T11:59:32.160Z,5.30
2019-02-23T12:02:00.408Z,5.92
2019-02-23T12:04:28.623Z,6.17
2019-02-23T12:06:57.180Z,5.55
2019-02-23T12:09:25.411Z,5.80
2019-02-23T12:11:53.697Z,5.50
2019-02-23T12:14:21.968Z,6.22
2019-02-23T12:16:50.531Z,5.83
2019-02-23T12:19:19.016Z,5.80
2019-02-23T12:21:47.243Z,5.47
2019-02-23T12:24:15.476Z,5.42
2019-02-23T12:26:43.696Z,5.30
2019-02-23T12:29:11.956Z,5.12
2019-02-23T12:31:40.202Z,5.00
2019-02-23T12:34:08.752Z,5.37
2019-02-23T12:36:36.972Z,5.10
2019-02-23T12:39:05.389Z,4.87
2019-02-23T12:41:33.607Z,4.78
2019-02-23T12:44:02.117Z,4.60
2019-02-23T12:46:30.340Z,4.28
2019-02-23T12:48:58.581Z,4.53
2019-02-23T12:51:26.800Z,4.00
2019-02-23T12:53:55.378Z,4.30
2019-02-23T12:56:23.598Z,3.98
2019-02-23T12:58:51.850Z,4.30
2019-02-23T13:01:20.072Z,4.47
2019-02-23T13:03:48.305Z,4.50
2019-02-23T13:06:16.820Z,3.80
2019-02-23T13:09:13.556Z,4.33
2019-02-23T13:11:45.024Z,3.65
2019-02-23T13:14:44.974Z,4.00
2019-02-23T13:17:37.904Z,3.72
2019-02-23T13:20:32.656Z,4.20
2019-02-23T13:23:19.305Z,3.92
2019-02-23T13:26:15.751Z,3.65
2019-02-23T13:29:19.335Z,3.80
2019-02-23T13:32:17.086Z,3.83
2019-02-23T13:35:05.064Z,3.80
2019-02-23T13:37:45.536Z,4.10
2019-02-23T13:40:34.908Z,4.20
2019-02-23T13:43:23.570Z,4.15
2019-02-23T13:45:57.781Z,4.00
2019-02-23T13:48:38.495Z,3.77
2019-02-23T13:51:29.663Z,4.22
2019-02-23T13:54:10.168Z,3.87
2019-02-23T13:56:56.504Z,4.00
2019-02-23T13:59:46.644Z,3.80
2019-02-23T14:02:30.368Z,3.85
2019-02-23T14:05:13.737Z,3.45
2019-02-23T14:07:53.953Z,3.50
2019-02-23T14:10:46.372Z,3.57
2019-02-23T14:13:32.708Z,3.75
2019-02-23T14:16:26.888Z,3.60
2019-02-23T14:19:04.322Z,3.58
2019-02-23T14:21:52.321Z,3.47
2019-02-23T14:24:49.523Z,3.95
2019-02-23T14:27:37.616Z,3.98
2019-02-23T14:30:44.041Z,4.12
2019-02-23T14:33:21.860Z,4.40
2019-02-23T14:35:59.153Z,3.95
2019-02-23T14:38:51.382Z,3.65
2019-02-23T14:41:44.393Z,4.08
2019-02-23T14:44:48.016Z,3.92
2019-02-23T14:47:22.078Z,4.17
2019-02-23T14:50:12.807Z,4.17
2019-02-23T14:52:47.120Z,4.37
2019-02-23T14:55:43.692Z,4.40
2019-02-23T14:58:36.738Z,4.87
2019-02-23T15:01:23.364Z,4.45
2019-02-23T15:04:21.604Z,4.50
2019-02-23T15:06:59.541Z,4.17
2019-02-23T15:10:06.329Z,3.87
2019-02-23T15:12:40.981Z,4.25
2019-02-23T15:15:21.963Z,4.33
2019-02-23T15:18:13.152Z,4.05
2019-02-23T15:20:56.434Z,3.58
2019-02-23T15:23:54.808Z,3.98
2019-02-23T15:26:35.607Z,3.92
2019-02-23T15:29:07.444Z,4.08
2019-02-23T15:31:50.756Z,4.42
2019-02-23T15:34:40.624Z,4.10
2019-02-23T15:37:14.680Z,4.10
2019-02-23T15:40:15.800Z,3.72
2019-02-23T15:42:49.912Z,4.08
2019-02-23T15:45:33.494Z,4.17
2019-02-23T15:48:17.015Z,4.25
2019-02-23T15:50:45.561Z,3.87
2019-02-23T15:53:14.164Z,3.92
2019-02-23T15:55:42.455Z,3.72
2019-02-23T15:58:11.009Z,4.12
2019-02-23T16:00:39.232Z,3.45
2019-02-23T16:03:07.468Z,3.40
2019-02-23T16:05:35.977Z,3.70
2019-02-23T16:08:04.216Z,3.90
2019-02-23T16:10:32.448Z,3.83
2019-02-23T16:13:00.684Z,3.08
2019-02-23T16:15:28.910Z,3.90
2019-02-23T16:17:57.144Z,3.62
2019-02-23T16:20:25.369Z,3.70
2019-02-23T16:22:53.611Z,3.80
2019-02-23T16:25:21.834Z,3.58
2019-02-23T16:27:50.076Z,3.80
2019-02-23T16:30:18.566Z,3.35
2019-02-23T16:32:46.815Z,3.20
2019-02-23T16:35:15.028Z,2.80
2019-02-23T16:37:43.267Z,2.80
2019-02-23T16:40:11.488Z,2.92
2019-02-23T16:42:39.728Z,3.30
2019-02-23T16:45:08.995Z,2.72
2019-02-23T16:47:37.232Z,3.12
2019-02-23T16:50:07.733Z,2.72
2019-02-23T16:52:36.236Z,3.05
2019-02-23T16:55:04.460Z,2.90
2019-02-23T16:57:33.021Z,2.90
2019-02-23T17:00:01.526Z,2.85
2019-02-23T17:02:30.008Z,2.70
2019-02-23T17:04:58.228Z,2.75
2019-02-23T17:07:26.476Z,2.67
2019-02-23T17:09:54.981Z,2.87
2019-02-23T17:12:23.217Z,2.67
2019-02-23T17:14:51.440Z,2.70
2019-02-23T17:17:19.677Z,2.70
2019-02-23T17:19:47.898Z,2.67
2019-02-23T17:22:16.151Z,2.70
2019-02-23T17:24:44.722Z,2.50
2019-02-23T17:27:12.960Z,2.83
2019-02-23T17:29:41.202Z,2.62
2019-02-23T17:32:09.500Z,2.22
2019-02-23T17:34:37.737Z,2.92
2019-02-23T17:37:05.991Z,2.30
2019-02-23T17:39:34.453Z,2.60
2019-02-23T17:42:02.786Z,2.90
2019-02-23T17:44:31.146Z,2.98
2019-02-23T17:46:59.393Z,2.83
2019-02-23T17:49:27.637Z,2.80
2019-02-23T17:51:55.856Z,2.80
2019-02-23T17:54:24.092Z,2.67
2019-02-23T17:56:52.573Z,2.40
2019-02-23T17:59:20.810Z,2.35
2019-02-23T18:01:49.037Z,2.67
2019-02-23T18:04:17.268Z,2.75
2019-02-23T18:06:45.936Z,2.80
2019-02-23T18:09:14.176Z,2.92
2019-02-23T18:11:42.396Z,2.75
2019-02-23T18:14:10.636Z,3.17
2019-02-23T18:16:38.852Z,3.00
2019-02-23T18:19:07.088Z,2.72
2019-02-23T18:21:35.304Z,3.12
2019-02-23T18:24:03.544Z,2.60
2019-02-23T18:26:32.069Z,2.80
2019-02-23T18:29:00.648Z,2.92
2019-02-23T18:31:28.869Z,2.70
2019-02-23T18:33:57.108Z,3.37
2019-02-23T18:36:25.328Z,3.15
2019-02-23T18:38:53.897Z,2.85
2019-02-23T18:41:22.707Z,3.02
2019-02-23T18:43:51.164Z,2.92
2019-02-23T18:46:19.389Z,3.05
2019-02-23T18:48:47.625Z,2.62
2019-02-23T18:51:15.854Z,2.83
2019-02-23T18:53:44.088Z,2.65
2019-02-23T18:56:12.304Z,2.55
2019-02-23T18:58:40.540Z,2.80
2019-02-23T19:01:08.758Z,2.90
2019-02-23T19:03:37.031Z,3.00
2019-02-23T19:06:05.247Z,3.02
2019-02-23T19:08:33.483Z,2.90
2019-02-23T19:11:01.972Z,2.75
2019-02-23T19:13:30.220Z,2.92
2019-02-23T19:15:58.512Z,3.40
2019-02-23T19:18:27.052Z,3.27
2019-02-23T19:20:55.265Z,3.05
2019-02-23T19:23:23.833Z,3.05
2019-02-23T19:25:52.045Z,2.58
2019-02-23T19:28:20.612Z,3.08
2019-02-23T19:30:48.829Z,2.70
2019-02-23T19:33:17.128Z,3.05
2019-02-23T19:35:45.373Z,3.10
2019-02-23T19:38:13.612Z,3.08
2019-02-23T19:40:41.880Z,3.70
2019-02-23T19:43:10.552Z,3.58
2019-02-23T19:45:38.852Z,3.60
2019-02-23T19:48:07.336Z,3.40
2019-02-23T19:50:47.732Z,3.45
2019-02-23T19:53:15.957Z,3.55
2019-02-23T19:55:44.171Z,3.50
2019-02-23T19:58:12.409Z,3.30
2019-02-23T20:00:40.624Z,3.50
2019-02-23T20:03:09.164Z,3.33
2019-02-23T20:05:37.409Z,3.80
2019-02-23T20:08:05.937Z,3.20
2019-02-23T20:10:34.203Z,2.98
2019-02-23T20:13:03.672Z,4.03
2019-02-23T20:15:33.004Z,3.08
2019-02-23T20:18:01.272Z,3.55
2019-02-23T20:20:29.499Z,3.77
2019-02-23T20:22:58.029Z,3.72
2019-02-23T20:25:26.421Z,2.98
2019-02-23T20:27:57.564Z,3.50
2019-02-23T20:32:53.424Z,3.83
2019-02-23T20:35:21.664Z,3.40
2019-02-23T20:37:49.884Z,3.30
2019-02-23T20:40:18.127Z,3.50
2019-02-23T20:42:46.356Z,3.37
2019-02-23T20:45:14.882Z,3.50
2019-02-23T20:47:43.180Z,3.40
2019-02-23T20:50:11.492Z,3.10
2019-02-23T20:52:39.710Z,3.17
2019-02-23T20:55:08.883Z,3.30
2019-02-23T20:57:37.136Z,3.17
2019-02-23T21:00:10.395Z,3.25
2019-02-23T21:02:38.944Z,3.12
2019-02-23T21:05:09.823Z,3.20
2019-02-23T21:07:38.327Z,3.10
2019-02-23T21:10:09.038Z,3.20
2019-02-23T21:12:37.351Z,3.65
2019-02-23T21:17:46.520Z,2.80
2019-02-23T21:20:14.766Z,3.05
2019-02-23T21:22:42.981Z,2.60
2019-02-23T21:25:11.216Z,2.80
2019-02-23T21:27:39.443Z,2.95
2019-02-23T21:30:09.642Z,2.62
2019-02-23T21:32:38.025Z,2.47
2019-02-23T21:35:08.241Z,2.67
2019-02-23T21:37:36.539Z,2.52
2019-02-23T21:40:07.536Z,2.30
2019-02-23T21:42:35.752Z,1.98
2019-02-23T21:45:05.533Z,2.27
2019-02-23T21:47:33.805Z,2.35
2019-02-23T21:50:02.041Z,2.40
2019-02-23T21:52:30.257Z,2.05
2019-02-23T21:54:58.565Z,2.10
2019-02-23T21:57:27.037Z,2.12
2019-02-23T21:59:55.270Z,2.00
2019-02-23T22:02:23.507Z,2.55
2019-02-23T22:04:52.102Z,1.95
2019-02-23T22:07:20.341Z,2.20
2019-02-23T22:09:48.852Z,2.12
2019-02-23T22:12:17.065Z,1.98
2019-02-23T22:14:45.298Z,1.80
2019-02-23T22:17:13.517Z,1.92
2019-02-23T22:19:41.752Z,1.95
2019-02-23T22:22:09.972Z,2.10
2019-02-23T22:24:38.200Z,2.27
2019-02-23T22:27:06.517Z,2.20
2019-02-23T22:29:34.820Z,1.90
2019-02-23T22:32:03.040Z,2.08
2019-02-23T22:34:31.269Z,2.15
2019-02-23T22:36:59.573Z,1.87
2019-02-23T22:39:27.795Z,2.02
2019-02-23T22:41:56.099Z,1.60
2019-02-23T22:44:24.673Z,1.67
2019-02-23T22:46:52.900Z,1.60
2019-02-23T22:49:21.116Z,1.67
2019-02-23T22:51:49.347Z,1.70
2019-02-23T22:54:17.885Z,2.08
2019-02-23T22:56:46.116Z,1.60
2019-02-23T22:59:14.332Z,1.70
2019-02-23T23:01:43.064Z,1.62
2019-02-23T23:04:11.559Z,1.57
2019-02-23T23:06:39.780Z,1.62
2019-02-23T23:09:09.639Z,1.77
2019-02-23T23:11:38.160Z,1.52
2019-02-23T23:14:06.374Z,1.45
2019-02-23T23:16:34.604Z,1.60
2019-02-23T23:19:03.336Z,1.80
2019-02-23T23:21:31.559Z,1.47
2019-02-23T23:23:59.776Z,1.35
2019-02-23T23:26:28.006Z,1.55
2019-02-23T23:28:56.225Z,1.35
2019-02-23T23:31:24.781Z,1.67
2019-02-23T23:33:53.277Z,1.80
2019-02-23T23:36:21.499Z,1.60
2019-02-23T23:38:50.060Z,1.72
2019-02-23T23:41:18.292Z,1.37
2019-02-23T23:43:46.500Z,1.70
2019-02-23T23:46:15.029Z,1.35
2019-02-23T23:48:43.245Z,1.35
2019-02-23T23:51:11.474Z,1.65
2019-02-23T23:53:39.691Z,1.20
2019-02-23T23:56:07.916Z,1.37
2019-02-23T23:58:36.136Z,1.60
